sensor_id;sensor_type;location;lat;lon;timestamp;temperature;humidity
5617;DHT22;2830;50.656;7.568;2023-04-25T00:00:15;5.80;99.90
5617;DHT22;2830;50.656;7.568;2023-04-25T00:02:42;5.80;99.90
5617;DHT22;2830;50.656;7.568;2023-04-25T00:05:09;5.70;99.90
5617;DHT22;2830;50.656;7.568;2023-04-25T00:07:36;5.70;99.90
5617;DHT22;2830;50.656;7.568;2023-04-25T00:10:03;5.70;99.90
5617;DHT22;2830;50.656;7.568;2023-04-25T00:12:30;5.70;99.90
5617;DHT22;2830;50.656;7.568;2023-04-25T00:14:56;5.80;99.90
5617;DHT22;2830;50.656;7.568;2023-04-25T00:17:23;5.80;99.90
5617;DHT22;2830;50.656;7.568;2023-04-25T00:19:53;5.80;99.90
5617;DHT22;2830;50.656;7.568;2023-04-25T00:22:20;5.80;99.90
5617;DHT22;2830;50.656;7.568;2023-04-25T00:24:47;5.70;99.90
5617;DHT22;2830;50.656;7.568;2023-04-25T00:27:14;5.70;99.90
5617;DHT22;2830;50.656;7.568;2023-04-25T00:29:40;5.80;99.90
5617;DHT22;2830;50.656;7.568;2023-04-25T00:32:07;5.80;99.90
5617;DHT22;2830;50.656;7.568;2023-04-25T00:34:34;5.80;99.90
5617;DHT22;2830;50.656;7.568;2023-04-25T00:37:00;5.80;99.90
5617;DHT22;2830;50.656;7.568;2023-04-25T00:39:28;5.80;99.90
5617;DHT22;2830;50.656;7.568;2023-04-25T00:41:55;5.80;99.90
5617;DHT22;2830;50.656;7.568;2023-04-25T00:44:22;5.70;99.90
5617;DHT22;2830;50.656;7.568;2023-04-25T00:46:52;5.60;99.90
5617;DHT22;2830;50.656;7.568;2023-04-25T00:49:20;5.50;99.90
5617;DHT22;2830;50.656;7.568;2023-04-25T00:51:46;5.50;99.90
5617;DHT22;2830;50.656;7.568;2023-04-25T00:54:13;5.40;99.90
5617;DHT22;2830;50.656;7.568;2023-04-25T00:56:40;5.30;99.90
5617;DHT22;2830;50.656;7.568;2023-04-25T00:59:09;5.10;99.90
5617;DHT22;2830;50.656;7.568;2023-04-25T01:01:36;5.10;99.90
5617;DHT22;2830;50.656;7.568;2023-04-25T01:04:04;5.10;99.90
5617;DHT22;2830;50.656;7.568;2023-04-25T01:06:31;5.00;99.90
5617;DHT22;2830;50.656;7.568;2023-04-25T01:08:59;4.90;99.90
5617;DHT22;2830;50.656;7.568;2023-04-25T01:11:25;4.90;99.90
5617;DHT22;2830;50.656;7.568;2023-04-25T01:13:52;4.80;99.90
5617;DHT22;2830;50.656;7.568;2023-04-25T01:16:19;4.70;99.90
5617;DHT22;2830;50.656;7.568;2023-04-25T01:18:47;4.60;99.90
5617;DHT22;2830;50.656;7.568;2023-04-25T01:21:13;4.70;99.90
5617;DHT22;2830;50.656;7.568;2023-04-25T01:23:41;4.50;99.90
5617;DHT22;2830;50.656;7.568;2023-04-25T01:26:09;4.50;99.90
5617;DHT22;2830;50.656;7.568;2023-04-25T01:28:38;4.40;99.90
5617;DHT22;2830;50.656;7.568;2023-04-25T01:31:07;4.30;99.90
5617;DHT22;2830;50.656;7.568;2023-04-25T01:33:35;4.30;99.90
5617;DHT22;2830;50.656;7.568;2023-04-25T01:36:01;4.30;99.90
5617;DHT22;2830;50.656;7.568;2023-04-25T01:38:28;4.20;99.90
5617;DHT22;2830;50.656;7.568;2023-04-25T01:40:55;4.20;99.90
5617;DHT22;2830;50.656;7.568;2023-04-25T01:43:22;4.20;99.90
5617;DHT22;2830;50.656;7.568;2023-04-25T01:45:50;4.20;99.90
5617;DHT22;2830;50.656;7.568;2023-04-25T01:48:17;4.20;99.90
5617;DHT22;2830;50.656;7.568;2023-04-25T01:50:44;4.20;99.90
5617;DHT22;2830;50.656;7.568;2023-04-25T01:53:13;4.20;99.90
5617;DHT22;2830;50.656;7.568;2023-04-25T01:55:40;4.20;99.90
5617;DHT22;2830;50.656;7.568;2023-04-25T01:58:06;4.30;99.90
5617;DHT22;2830;50.656;7.568;2023-04-25T02:00:36;4.20;99.90
5617;DHT22;2830;50.656;7.568;2023-04-25T02:03:05;4.20;99.90
5617;DHT22;2830;50.656;7.568;2023-04-25T02:05:39;4.20;99.90
5617;DHT22;2830;50.656;7.568;2023-04-25T02:08:07;4.10;99.90
5617;DHT22;2830;50.656;7.568;2023-04-25T02:10:34;4.20;99.90
5617;DHT22;2830;50.656;7.568;2023-04-25T02:13:02;4.10;99.90
5617;DHT22;2830;50.656;7.568;2023-04-25T02:15:28;4.00;99.90
5617;DHT22;2830;50.656;7.568;2023-04-25T02:17:55;3.90;99.90
5617;DHT22;2830;50.656;7.568;2023-04-25T02:20:23;3.80;99.90
5617;DHT22;2830;50.656;7.568;2023-04-25T02:22:50;3.80;99.90
5617;DHT22;2830;50.656;7.568;2023-04-25T02:25:18;3.70;99.90
5617;DHT22;2830;50.656;7.568;2023-04-25T02:27:49;3.60;99.90
5617;DHT22;2830;50.656;7.568;2023-04-25T02:30:17;3.60;99.90
5617;DHT22;2830;50.656;7.568;2023-04-25T02:32:44;3.60;99.90
5617;DHT22;2830;50.656;7.568;2023-04-25T02:35:11;3.50;99.90
5617;DHT22;2830;50.656;7.568;2023-04-25T02:37:39;3.60;99.90
5617;DHT22;2830;50.656;7.568;2023-04-25T02:40:06;3.50;99.90
5617;DHT22;2830;50.656;7.568;2023-04-25T02:42:33;3.50;99.90
5617;DHT22;2830;50.656;7.568;2023-04-25T02:45:02;3.50;99.90
5617;DHT22;2830;50.656;7.568;2023-04-25T02:47:29;3.60;99.90
5617;DHT22;2830;50.656;7.568;2023-04-25T02:49:56;3.70;99.90
5617;DHT22;2830;50.656;7.568;2023-04-25T02:52:22;3.80;99.90
5617;DHT22;2830;50.656;7.568;2023-04-25T02:54:49;3.90;99.90
5617;DHT22;2830;50.656;7.568;2023-04-25T02:57:16;3.90;99.90
5617;DHT22;2830;50.656;7.568;2023-04-25T02:59:42;4.00;99.90
5617;DHT22;2830;50.656;7.568;2023-04-25T03:02:09;4.00;99.90
5617;DHT22;2830;50.656;7.568;2023-04-25T03:04:36;4.10;99.90
5617;DHT22;2830;50.656;7.568;2023-04-25T03:07:04;4.10;99.90
5617;DHT22;2830;50.656;7.568;2023-04-25T03:09:31;4.10;99.90
5617;DHT22;2830;50.656;7.568;2023-04-25T03:11:57;4.10;99.90
5617;DHT22;2830;50.656;7.568;2023-04-25T03:14:24;4.00;99.90
5617;DHT22;2830;50.656;7.568;2023-04-25T03:16:51;4.00;99.90
5617;DHT22;2830;50.656;7.568;2023-04-25T03:19:17;4.00;99.90
5617;DHT22;2830;50.656;7.568;2023-04-25T03:21:45;4.00;99.90
5617;DHT22;2830;50.656;7.568;2023-04-25T03:24:11;4.10;99.90
5617;DHT22;2830;50.656;7.568;2023-04-25T03:26:38;4.10;99.90
5617;DHT22;2830;50.656;7.568;2023-04-25T03:29:05;4.00;99.90
5617;DHT22;2830;50.656;7.568;2023-04-25T03:31:32;3.90;99.90
5617;DHT22;2830;50.656;7.568;2023-04-25T03:33:58;3.90;99.90
5617;DHT22;2830;50.656;7.568;2023-04-25T03:36:25;3.80;99.90
5617;DHT22;2830;50.656;7.568;2023-04-25T03:38:54;3.80;99.90
5617;DHT22;2830;50.656;7.568;2023-04-25T03:41:20;3.80;99.90
5617;DHT22;2830;50.656;7.568;2023-04-25T03:43:47;3.80;99.90
5617;DHT22;2830;50.656;7.568;2023-04-25T03:46:14;3.70;99.90
5617;DHT22;2830;50.656;7.568;2023-04-25T03:48:41;3.70;99.90
5617;DHT22;2830;50.656;7.568;2023-04-25T03:51:07;3.70;99.90
5617;DHT22;2830;50.656;7.568;2023-04-25T03:53:34;3.70;99.90
5617;DHT22;2830;50.656;7.568;2023-04-25T03:56:01;3.70;99.90
5617;DHT22;2830;50.656;7.568;2023-04-25T03:58:27;3.70;99.90
5617;DHT22;2830;50.656;7.568;2023-04-25T04:00:54;3.70;99.90
5617;DHT22;2830;50.656;7.568;2023-04-25T04:03:20;3.60;99.90
5617;DHT22;2830;50.656;7.568;2023-04-25T04:05:48;3.60;99.90
5617;DHT22;2830;50.656;7.568;2023-04-25T04:08:14;3.50;99.90
5617;DHT22;2830;50.656;7.568;2023-04-25T04:10:43;3.50;99.90
5617;DHT22;2830;50.656;7.568;2023-04-25T04:13:10;3.40;99.90
5617;DHT22;2830;50.656;7.568;2023-04-25T04:15:36;3.40;99.90
5617;DHT22;2830;50.656;7.568;2023-04-25T04:18:03;3.40;99.90
5617;DHT22;2830;50.656;7.568;2023-04-25T04:20:30;3.40;99.90
5617;DHT22;2830;50.656;7.568;2023-04-25T04:22:57;3.40;99.90
5617;DHT22;2830;50.656;7.568;2023-04-25T04:25:24;3.40;99.90
5617;DHT22;2830;50.656;7.568;2023-04-25T04:27:51;3.40;99.90
5617;DHT22;2830;50.656;7.568;2023-04-25T04:30:23;3.40;99.90
5617;DHT22;2830;50.656;7.568;2023-04-25T04:32:56;3.40;99.90
5617;DHT22;2830;50.656;7.568;2023-04-25T04:35:27;3.40;99.90
5617;DHT22;2830;50.656;7.568;2023-04-25T04:37:54;3.40;99.90
5617;DHT22;2830;50.656;7.568;2023-04-25T04:40:21;3.40;99.90
5617;DHT22;2830;50.656;7.568;2023-04-25T04:42:48;3.60;99.90
5617;DHT22;2830;50.656;7.568;2023-04-25T04:45:15;3.70;99.90
5617;DHT22;2830;50.656;7.568;2023-04-25T04:47:42;3.80;99.90
5617;DHT22;2830;50.656;7.568;2023-04-25T04:50:10;4.00;99.90
5617;DHT22;2830;50.656;7.568;2023-04-25T04:52:37;4.20;99.90
5617;DHT22;2830;50.656;7.568;2023-04-25T04:55:05;4.30;99.90
5617;DHT22;2830;50.656;7.568;2023-04-25T04:57:32;4.40;99.90
5617;DHT22;2830;50.656;7.568;2023-04-25T04:59:59;4.40;99.90
5617;DHT22;2830;50.656;7.568;2023-04-25T05:02:27;4.40;99.90
5617;DHT22;2830;50.656;7.568;2023-04-25T05:04:56;4.50;99.90
5617;DHT22;2830;50.656;7.568;2023-04-25T05:07:23;4.60;99.90
5617;DHT22;2830;50.656;7.568;2023-04-25T05:09:49;4.70;99.90
5617;DHT22;2830;50.656;7.568;2023-04-25T05:12:17;4.80;99.90
5617;DHT22;2830;50.656;7.568;2023-04-25T05:14:44;4.80;99.90
5617;DHT22;2830;50.656;7.568;2023-04-25T05:17:10;4.80;99.90
5617;DHT22;2830;50.656;7.568;2023-04-25T05:19:37;4.90;99.90
5617;DHT22;2830;50.656;7.568;2023-04-25T05:22:04;5.00;99.90
5617;DHT22;2830;50.656;7.568;2023-04-25T05:24:31;5.10;99.90
5617;DHT22;2830;50.656;7.568;2023-04-25T05:26:58;5.20;99.90
5617;DHT22;2830;50.656;7.568;2023-04-25T05:29:24;5.20;99.90
5617;DHT22;2830;50.656;7.568;2023-04-25T05:31:51;5.30;99.90
5617;DHT22;2830;50.656;7.568;2023-04-25T05:34:18;5.30;99.90
5617;DHT22;2830;50.656;7.568;2023-04-25T05:36:44;5.30;99.90
5617;DHT22;2830;50.656;7.568;2023-04-25T05:39:17;5.50;99.90
5617;DHT22;2830;50.656;7.568;2023-04-25T05:41:44;5.60;99.90
5617;DHT22;2830;50.656;7.568;2023-04-25T05:44:10;5.70;99.90
5617;DHT22;2830;50.656;7.568;2023-04-25T05:46:37;5.90;99.90
5617;DHT22;2830;50.656;7.568;2023-04-25T05:49:04;6.00;99.90
5617;DHT22;2830;50.656;7.568;2023-04-25T05:51:31;6.20;99.90
5617;DHT22;2830;50.656;7.568;2023-04-25T05:53:58;6.30;99.90
5617;DHT22;2830;50.656;7.568;2023-04-25T05:56:24;6.40;99.90
5617;DHT22;2830;50.656;7.568;2023-04-25T05:58:51;6.50;99.90
5617;DHT22;2830;50.656;7.568;2023-04-25T06:01:18;6.50;99.90
5617;DHT22;2830;50.656;7.568;2023-04-25T06:03:44;6.50;99.90
5617;DHT22;2830;50.656;7.568;2023-04-25T06:06:11;6.50;99.90
5617;DHT22;2830;50.656;7.568;2023-04-25T06:08:38;6.50;99.90
5617;DHT22;2830;50.656;7.568;2023-04-25T06:11:05;6.60;99.90
5617;DHT22;2830;50.656;7.568;2023-04-25T06:13:33;6.60;99.90
5617;DHT22;2830;50.656;7.568;2023-04-25T06:16:00;6.80;99.90
5617;DHT22;2830;50.656;7.568;2023-04-25T06:18:30;7.10;99.90
5617;DHT22;2830;50.656;7.568;2023-04-25T06:20:56;7.30;99.90
5617;DHT22;2830;50.656;7.568;2023-04-25T06:23:23;7.30;99.90
5617;DHT22;2830;50.656;7.568;2023-04-25T06:25:50;7.20;99.90
5617;DHT22;2830;50.656;7.568;2023-04-25T06:28:16;7.00;99.90
5617;DHT22;2830;50.656;7.568;2023-04-25T06:30:43;7.10;99.90
5617;DHT22;2830;50.656;7.568;2023-04-25T06:33:10;7.10;99.90
5617;DHT22;2830;50.656;7.568;2023-04-25T06:35:36;7.20;99.90
5617;DHT22;2830;50.656;7.568;2023-04-25T06:38:03;7.10;99.90
5617;DHT22;2830;50.656;7.568;2023-04-25T06:40:30;7.00;99.90
5617;DHT22;2830;50.656;7.568;2023-04-25T06:42:56;7.10;99.90
5617;DHT22;2830;50.656;7.568;2023-04-25T06:45:23;7.20;99.90
5617;DHT22;2830;50.656;7.568;2023-04-25T06:47:50;7.30;99.90
5617;DHT22;2830;50.656;7.568;2023-04-25T06:50:17;7.40;99.90
5617;DHT22;2830;50.656;7.568;2023-04-25T06:52:43;7.50;99.90
5617;DHT22;2830;50.656;7.568;2023-04-25T06:55:10;7.60;99.90
5617;DHT22;2830;50.656;7.568;2023-04-25T06:57:36;7.50;99.90
5617;DHT22;2830;50.656;7.568;2023-04-25T07:00:04;7.50;99.90
5617;DHT22;2830;50.656;7.568;2023-04-25T07:02:36;7.40;99.90
5617;DHT22;2830;50.656;7.568;2023-04-25T07:05:03;7.40;99.90
5617;DHT22;2830;50.656;7.568;2023-04-25T07:07:30;7.50;99.90
5617;DHT22;2830;50.656;7.568;2023-04-25T07:09:57;7.60;99.90
5617;DHT22;2830;50.656;7.568;2023-04-25T07:12:24;7.80;99.90
5617;DHT22;2830;50.656;7.568;2023-04-25T07:14:50;8.00;99.90
5617;DHT22;2830;50.656;7.568;2023-04-25T07:17:18;8.10;99.90
5617;DHT22;2830;50.656;7.568;2023-04-25T07:19:44;8.20;99.90
5617;DHT22;2830;50.656;7.568;2023-04-25T07:22:11;8.10;99.90
5617;DHT22;2830;50.656;7.568;2023-04-25T07:24:38;8.00;99.90
5617;DHT22;2830;50.656;7.568;2023-04-25T07:27:04;7.90;99.90
5617;DHT22;2830;50.656;7.568;2023-04-25T07:29:31;8.00;99.90
5617;DHT22;2830;50.656;7.568;2023-04-25T07:31:58;8.00;99.90
5617;DHT22;2830;50.656;7.568;2023-04-25T07:34:26;8.10;99.90
5617;DHT22;2830;50.656;7.568;2023-04-25T07:36:53;8.30;99.90
5617;DHT22;2830;50.656;7.568;2023-04-25T07:39:20;8.40;99.70
5617;DHT22;2830;50.656;7.568;2023-04-25T07:41:46;8.60;99.90
5617;DHT22;2830;50.656;7.568;2023-04-25T07:44:13;8.80;99.00
5617;DHT22;2830;50.656;7.568;2023-04-25T07:46:40;9.40;98.80
5617;DHT22;2830;50.656;7.568;2023-04-25T07:49:06;9.80;97.50
5617;DHT22;2830;50.656;7.568;2023-04-25T07:51:33;10.10;97.30
5617;DHT22;2830;50.656;7.568;2023-04-25T07:53:59;10.10;96.50
5617;DHT22;2830;50.656;7.568;2023-04-25T07:56:27;9.80;96.40
5617;DHT22;2830;50.656;7.568;2023-04-25T07:59:00;9.40;96.00
5617;DHT22;2830;50.656;7.568;2023-04-25T08:01:27;8.90;95.60
5617;DHT22;2830;50.656;7.568;2023-04-25T08:03:53;8.70;95.70
5617;DHT22;2830;50.656;7.568;2023-04-25T08:06:21;8.60;96.40
5617;DHT22;2830;50.656;7.568;2023-04-25T08:08:48;8.60;96.70
5617;DHT22;2830;50.656;7.568;2023-04-25T08:11:14;8.80;97.10
5617;DHT22;2830;50.656;7.568;2023-04-25T08:13:42;9.10;96.30
5617;DHT22;2830;50.656;7.568;2023-04-25T08:16:08;9.20;94.40
5617;DHT22;2830;50.656;7.568;2023-04-25T08:18:35;9.30;93.60
5617;DHT22;2830;50.656;7.568;2023-04-25T08:21:02;9.30;93.80
5617;DHT22;2830;50.656;7.568;2023-04-25T08:23:28;9.30;93.60
5617;DHT22;2830;50.656;7.568;2023-04-25T08:25:55;9.20;93.30
5617;DHT22;2830;50.656;7.568;2023-04-25T08:28:22;9.00;93.90
5617;DHT22;2830;50.656;7.568;2023-04-25T08:30:49;8.90;93.60
5617;DHT22;2830;50.656;7.568;2023-04-25T08:33:15;8.80;94.20
5617;DHT22;2830;50.656;7.568;2023-04-25T08:35:43;8.80;95.00
5617;DHT22;2830;50.656;7.568;2023-04-25T08:38:11;8.80;94.70
5617;DHT22;2830;50.656;7.568;2023-04-25T08:40:39;8.90;94.10
5617;DHT22;2830;50.656;7.568;2023-04-25T08:43:07;8.70;93.90
5617;DHT22;2830;50.656;7.568;2023-04-25T08:45:42;8.80;95.30
5617;DHT22;2830;50.656;7.568;2023-04-25T08:48:15;8.90;95.10
5617;DHT22;2830;50.656;7.568;2023-04-25T08:50:53;8.80;94.30
5617;DHT22;2830;50.656;7.568;2023-04-25T08:53:27;8.60;93.80
5617;DHT22;2830;50.656;7.568;2023-04-25T08:55:55;8.40;95.00
5617;DHT22;2830;50.656;7.568;2023-04-25T08:58:23;8.10;95.50
5617;DHT22;2830;50.656;7.568;2023-04-25T09:00:50;8.10;95.80
5617;DHT22;2830;50.656;7.568;2023-04-25T09:03:17;8.10;96.20
5617;DHT22;2830;50.656;7.568;2023-04-25T09:05:45;8.20;96.30
5617;DHT22;2830;50.656;7.568;2023-04-25T09:08:12;8.30;96.90
5617;DHT22;2830;50.656;7.568;2023-04-25T09:10:38;8.40;96.00
5617;DHT22;2830;50.656;7.568;2023-04-25T09:13:11;8.40;96.60
5617;DHT22;2830;50.656;7.568;2023-04-25T09:15:55;8.50;96.00
5617;DHT22;2830;50.656;7.568;2023-04-25T09:18:27;8.80;95.80
5617;DHT22;2830;50.656;7.568;2023-04-25T09:21:10;9.10;95.50
5617;DHT22;2830;50.656;7.568;2023-04-25T09:23:58;9.40;94.30
5617;DHT22;2830;50.656;7.568;2023-04-25T09:26:26;9.60;92.70
5617;DHT22;2830;50.656;7.568;2023-04-25T09:29:05;9.40;91.10
5617;DHT22;2830;50.656;7.568;2023-04-25T09:31:33;9.20;90.80
5617;DHT22;2830;50.656;7.568;2023-04-25T09:34:00;9.30;90.40
5617;DHT22;2830;50.656;7.568;2023-04-25T09:36:29;9.40;91.20
5617;DHT22;2830;50.656;7.568;2023-04-25T09:38:59;9.80;92.20
5617;DHT22;2830;50.656;7.568;2023-04-25T09:41:26;10.00;88.80
5617;DHT22;2830;50.656;7.568;2023-04-25T09:43:56;9.80;87.80
5617;DHT22;2830;50.656;7.568;2023-04-25T09:46:24;10.00;86.30
5617;DHT22;2830;50.656;7.568;2023-04-25T09:48:51;10.00;87.20
5617;DHT22;2830;50.656;7.568;2023-04-25T09:51:20;10.20;87.30
5617;DHT22;2830;50.656;7.568;2023-04-25T09:53:47;10.30;82.60
5617;DHT22;2830;50.656;7.568;2023-04-25T09:56:18;10.30;80.70
5617;DHT22;2830;50.656;7.568;2023-04-25T09:58:47;10.30;79.00
5617;DHT22;2830;50.656;7.568;2023-04-25T10:01:16;10.00;81.20
5617;DHT22;2830;50.656;7.568;2023-04-25T10:03:44;9.80;84.00
5617;DHT22;2830;50.656;7.568;2023-04-25T10:06:17;9.60;87.30
5617;DHT22;2830;50.656;7.568;2023-04-25T10:08:45;9.50;89.20
5617;DHT22;2830;50.656;7.568;2023-04-25T10:11:16;9.60;87.90
5617;DHT22;2830;50.656;7.568;2023-04-25T10:13:43;9.50;88.40
5617;DHT22;2830;50.656;7.568;2023-04-25T10:16:11;9.30;88.00
5617;DHT22;2830;50.656;7.568;2023-04-25T10:18:38;9.20;88.40
5617;DHT22;2830;50.656;7.568;2023-04-25T10:21:06;9.10;88.40
5617;DHT22;2830;50.656;7.568;2023-04-25T10:23:33;8.90;88.50
5617;DHT22;2830;50.656;7.568;2023-04-25T10:26:01;8.70;88.40
5617;DHT22;2830;50.656;7.568;2023-04-25T10:28:28;8.60;89.40
5617;DHT22;2830;50.656;7.568;2023-04-25T10:33:32;8.50;90.30
5617;DHT22;2830;50.656;7.568;2023-04-25T10:36:11;8.80;90.10
5617;DHT22;2830;50.656;7.568;2023-04-25T10:38:39;9.50;89.90
5617;DHT22;2830;50.656;7.568;2023-04-25T10:41:07;9.80;86.70
5617;DHT22;2830;50.656;7.568;2023-04-25T10:43:41;10.10;87.90
5617;DHT22;2830;50.656;7.568;2023-04-25T10:46:15;10.00;84.30
5617;DHT22;2830;50.656;7.568;2023-04-25T10:48:50;9.90;85.80
5617;DHT22;2830;50.656;7.568;2023-04-25T10:56:27;10.50;81.50
5617;DHT22;2830;50.656;7.568;2023-04-25T11:01:41;10.90;79.70
5617;DHT22;2830;50.656;7.568;2023-04-25T11:04:22;11.00;79.10
5617;DHT22;2830;50.656;7.568;2023-04-25T11:09:35;10.90;76.30
5617;DHT22;2830;50.656;7.568;2023-04-25T11:12:02;11.10;75.60
5617;DHT22;2830;50.656;7.568;2023-04-25T11:14:28;11.00;76.70
5617;DHT22;2830;50.656;7.568;2023-04-25T11:16:56;10.80;77.80
5617;DHT22;2830;50.656;7.568;2023-04-25T11:19:26;11.00;75.40
5617;DHT22;2830;50.656;7.568;2023-04-25T11:21:58;10.90;76.20
5617;DHT22;2830;50.656;7.568;2023-04-25T11:24:29;10.80;74.60
5617;DHT22;2830;50.656;7.568;2023-04-25T11:26:58;10.70;76.80
5617;DHT22;2830;50.656;7.568;2023-04-25T11:29:29;10.50;79.10
5617;DHT22;2830;50.656;7.568;2023-04-25T11:31:56;10.60;77.70
5617;DHT22;2830;50.656;7.568;2023-04-25T11:34:26;10.50;77.60
5617;DHT22;2830;50.656;7.568;2023-04-25T11:36:53;10.20;78.00
5617;DHT22;2830;50.656;7.568;2023-04-25T11:39:21;9.90;80.00
5617;DHT22;2830;50.656;7.568;2023-04-25T11:41:49;10.00;82.00
5617;DHT22;2830;50.656;7.568;2023-04-25T11:44:18;9.90;83.00
5617;DHT22;2830;50.656;7.568;2023-04-25T11:46:45;10.10;83.00
5617;DHT22;2830;50.656;7.568;2023-04-25T11:49:16;10.40;81.30
5617;DHT22;2830;50.656;7.568;2023-04-25T11:51:46;11.00;80.50
5617;DHT22;2830;50.656;7.568;2023-04-25T11:54:13;11.40;77.50
5617;DHT22;2830;50.656;7.568;2023-04-25T11:56:42;11.70;75.40
5617;DHT22;2830;50.656;7.568;2023-04-25T11:59:09;12.50;74.90
5617;DHT22;2830;50.656;7.568;2023-04-25T12:01:38;13.20;72.40
5617;DHT22;2830;50.656;7.568;2023-04-25T12:04:13;14.70;68.20
5617;DHT22;2830;50.656;7.568;2023-04-25T12:06:42;15.30;64.30
5617;DHT22;2830;50.656;7.568;2023-04-25T12:09:11;14.90;62.80
5617;DHT22;2830;50.656;7.568;2023-04-25T12:11:45;14.10;65.00
5617;DHT22;2830;50.656;7.568;2023-04-25T12:14:21;14.60;65.30
5617;DHT22;2830;50.656;7.568;2023-04-25T12:16:48;14.60;64.60
5617;DHT22;2830;50.656;7.568;2023-04-25T12:19:17;14.00;62.90
5617;DHT22;2830;50.656;7.568;2023-04-25T12:21:44;12.90;65.50
5617;DHT22;2830;50.656;7.568;2023-04-25T12:24:25;11.90;68.90
5617;DHT22;2830;50.656;7.568;2023-04-25T12:27:02;11.30;71.90
5617;DHT22;2830;50.656;7.568;2023-04-25T12:29:31;10.50;74.50
5617;DHT22;2830;50.656;7.568;2023-04-25T12:32:14;10.00;78.00
5617;DHT22;2830;50.656;7.568;2023-04-25T12:34:41;9.50;81.70
5617;DHT22;2830;50.656;7.568;2023-04-25T12:37:08;9.40;79.90
5617;DHT22;2830;50.656;7.568;2023-04-25T12:39:35;9.30;80.10
5617;DHT22;2830;50.656;7.568;2023-04-25T12:42:02;9.40;81.60
5617;DHT22;2830;50.656;7.568;2023-04-25T12:44:30;9.50;81.60
5617;DHT22;2830;50.656;7.568;2023-04-25T12:46:57;9.70;82.20
5617;DHT22;2830;50.656;7.568;2023-04-25T12:49:24;9.90;81.90
5617;DHT22;2830;50.656;7.568;2023-04-25T12:51:51;10.10;82.00
5617;DHT22;2830;50.656;7.568;2023-04-25T12:54:18;10.50;80.00
5617;DHT22;2830;50.656;7.568;2023-04-25T12:56:45;10.80;78.00
5617;DHT22;2830;50.656;7.568;2023-04-25T12:59:12;10.80;77.80
5617;DHT22;2830;50.656;7.568;2023-04-25T13:01:39;10.90;75.20
5617;DHT22;2830;50.656;7.568;2023-04-25T13:04:06;11.20;74.70
5617;DHT22;2830;50.656;7.568;2023-04-25T13:06:33;11.20;69.70
5617;DHT22;2830;50.656;7.568;2023-04-25T13:08:59;11.00;69.10
5617;DHT22;2830;50.656;7.568;2023-04-25T13:11:26;11.00;68.50
5617;DHT22;2830;50.656;7.568;2023-04-25T13:13:53;11.00;71.10
5617;DHT22;2830;50.656;7.568;2023-04-25T13:16:20;11.20;71.50
5617;DHT22;2830;50.656;7.568;2023-04-25T13:18:48;11.50;69.90
5617;DHT22;2830;50.656;7.568;2023-04-25T13:21:15;11.60;70.30
5617;DHT22;2830;50.656;7.568;2023-04-25T13:23:41;11.90;70.90
5617;DHT22;2830;50.656;7.568;2023-04-25T13:26:12;12.30;69.10
5617;DHT22;2830;50.656;7.568;2023-04-25T13:28:39;12.80;65.70
5617;DHT22;2830;50.656;7.568;2023-04-25T13:31:09;13.10;64.20
5617;DHT22;2830;50.656;7.568;2023-04-25T13:33:36;13.20;65.90
5617;DHT22;2830;50.656;7.568;2023-04-25T13:36:03;13.30;68.30
5617;DHT22;2830;50.656;7.568;2023-04-25T13:38:30;12.80;61.80
5617;DHT22;2830;50.656;7.568;2023-04-25T13:40:57;12.50;66.10
5617;DHT22;2830;50.656;7.568;2023-04-25T13:43:23;12.70;68.70
5617;DHT22;2830;50.656;7.568;2023-04-25T13:45:50;12.70;69.00
5617;DHT22;2830;50.656;7.568;2023-04-25T13:48:18;12.60;66.20
5617;DHT22;2830;50.656;7.568;2023-04-25T13:50:46;12.50;64.60
5617;DHT22;2830;50.656;7.568;2023-04-25T13:53:13;12.60;69.10
5617;DHT22;2830;50.656;7.568;2023-04-25T13:55:39;12.50;64.70
5617;DHT22;2830;50.656;7.568;2023-04-25T13:58:06;12.20;65.90
5617;DHT22;2830;50.656;7.568;2023-04-25T14:00:37;12.00;67.70
5617;DHT22;2830;50.656;7.568;2023-04-25T14:03:05;11.90;66.00
5617;DHT22;2830;50.656;7.568;2023-04-25T14:05:35;11.70;64.60
5617;DHT22;2830;50.656;7.568;2023-04-25T14:08:09;11.50;65.10
5617;DHT22;2830;50.656;7.568;2023-04-25T14:10:36;11.30;62.90
5617;DHT22;2830;50.656;7.568;2023-04-25T14:13:04;11.30;64.70
5617;DHT22;2830;50.656;7.568;2023-04-25T14:15:32;11.30;63.80
5617;DHT22;2830;50.656;7.568;2023-04-25T14:18:00;11.00;63.00
5617;DHT22;2830;50.656;7.568;2023-04-25T14:20:27;11.00;64.00
5617;DHT22;2830;50.656;7.568;2023-04-25T14:22:54;10.90;65.00
5617;DHT22;2830;50.656;7.568;2023-04-25T14:25:23;10.90;63.10
5617;DHT22;2830;50.656;7.568;2023-04-25T14:27:50;10.70;62.50
5617;DHT22;2830;50.656;7.568;2023-04-25T14:30:17;10.60;66.30
5617;DHT22;2830;50.656;7.568;2023-04-25T14:32:44;10.60;65.20
5617;DHT22;2830;50.656;7.568;2023-04-25T14:35:12;10.40;63.80
5617;DHT22;2830;50.656;7.568;2023-04-25T14:37:39;10.40;64.50
5617;DHT22;2830;50.656;7.568;2023-04-25T14:40:06;10.40;65.10
5617;DHT22;2830;50.656;7.568;2023-04-25T14:42:36;10.40;66.00
5617;DHT22;2830;50.656;7.568;2023-04-25T14:45:05;10.70;66.70
5617;DHT22;2830;50.656;7.568;2023-04-25T14:47:33;10.80;68.50
5617;DHT22;2830;50.656;7.568;2023-04-25T14:49:59;10.90;66.90
5617;DHT22;2830;50.656;7.568;2023-04-25T14:52:27;10.90;65.10
5617;DHT22;2830;50.656;7.568;2023-04-25T14:54:54;10.90;67.70
5617;DHT22;2830;50.656;7.568;2023-04-25T14:57:21;10.70;67.00
5617;DHT22;2830;50.656;7.568;2023-04-25T14:59:47;10.70;64.70
5617;DHT22;2830;50.656;7.568;2023-04-25T15:02:14;11.00;67.80
5617;DHT22;2830;50.656;7.568;2023-04-25T15:04:41;11.00;63.40
5617;DHT22;2830;50.656;7.568;2023-04-25T15:07:08;11.00;66.90
5617;DHT22;2830;50.656;7.568;2023-04-25T15:09:35;10.90;63.20
5617;DHT22;2830;50.656;7.568;2023-04-25T15:12:02;10.70;63.70
5617;DHT22;2830;50.656;7.568;2023-04-25T15:14:28;10.70;64.80
5617;DHT22;2830;50.656;7.568;2023-04-25T15:16:55;10.80;63.90
5617;DHT22;2830;50.656;7.568;2023-04-25T15:19:22;10.80;68.40
5617;DHT22;2830;50.656;7.568;2023-04-25T15:21:49;11.00;64.50
5617;DHT22;2830;50.656;7.568;2023-04-25T15:24:15;11.10;67.80
5617;DHT22;2830;50.656;7.568;2023-04-25T15:26:42;11.10;69.50
5617;DHT22;2830;50.656;7.568;2023-04-25T15:29:09;11.20;67.20
5617;DHT22;2830;50.656;7.568;2023-04-25T15:31:37;11.10;67.10
5617;DHT22;2830;50.656;7.568;2023-04-25T15:34:04;10.90;68.20
5617;DHT22;2830;50.656;7.568;2023-04-25T15:36:31;11.00;68.80
5617;DHT22;2830;50.656;7.568;2023-04-25T15:38:58;11.00;69.30
5617;DHT22;2830;50.656;7.568;2023-04-25T15:41:25;11.00;69.00
5617;DHT22;2830;50.656;7.568;2023-04-25T15:43:52;11.00;69.00
5617;DHT22;2830;50.656;7.568;2023-04-25T15:46:20;11.00;71.80
5617;DHT22;2830;50.656;7.568;2023-04-25T15:48:49;11.00;69.90
5617;DHT22;2830;50.656;7.568;2023-04-25T15:51:16;10.80;68.70
5617;DHT22;2830;50.656;7.568;2023-04-25T15:53:43;10.50;69.20
5617;DHT22;2830;50.656;7.568;2023-04-25T15:56:09;10.30;70.50
5617;DHT22;2830;50.656;7.568;2023-04-25T15:58:36;10.20;72.30
5617;DHT22;2830;50.656;7.568;2023-04-25T16:01:03;10.10;71.20
5617;DHT22;2830;50.656;7.568;2023-04-25T16:03:31;10.10;71.30
5617;DHT22;2830;50.656;7.568;2023-04-25T16:06:01;10.10;74.80
5617;DHT22;2830;50.656;7.568;2023-04-25T16:08:28;10.00;72.90
5617;DHT22;2830;50.656;7.568;2023-04-25T16:10:55;10.10;73.10
5617;DHT22;2830;50.656;7.568;2023-04-25T16:13:22;10.10;70.60
5617;DHT22;2830;50.656;7.568;2023-04-25T16:15:49;10.00;71.50
5617;DHT22;2830;50.656;7.568;2023-04-25T16:18:16;9.90;74.50
5617;DHT22;2830;50.656;7.568;2023-04-25T16:20:43;9.90;77.00
5617;DHT22;2830;50.656;7.568;2023-04-25T16:23:10;10.00;75.30
5617;DHT22;2830;50.656;7.568;2023-04-25T16:25:37;10.20;75.00
5617;DHT22;2830;50.656;7.568;2023-04-25T16:28:03;10.30;74.40